Time;durP1;ratioP1;P1;durP2;ratioP2;P2;SDS_P1;SDS_P2;PMS_P1;PMS_P2;Temp;Humidity;BMP_temperature;BMP_pressure;BME280_temperature;BME280_humidity;BME280_pressure;Samples;Min_cycle;Max_cycle;Signal;HPM_P1;HPM_P2
2021/05/12 00:00:35;;;;;;;4.05;3.65;;;11.70;99.90;;;;;;5053859;28;20048;-77
2021/05/12 00:03:01;;;;;;;4.85;3.85;;;11.70;99.90;;;;;;5054233;28;20039;-77
2021/05/12 00:05:27;;;;;;;8.07;4.32;;;11.70;99.90;;;;;;5053607;28;20509;-77
2021/05/12 00:07:53;;;;;;;6.35;4.10;;;11.70;99.90;;;;;;5054191;28;20048;-76
2021/05/12 00:10:22;;;;;;;7.07;4.38;;;11.60;99.90;;;;;;5053657;28;20029;-77
2021/05/12 00:12:50;;;;;;;9.57;4.80;;;11.60;99.90;;;;;;5054297;28;20379;-77
2021/05/12 00:15:20;;;;;;;5.85;4.18;;;11.50;99.90;;;;;;5053997;28;20381;-78
2021/05/12 00:17:49;;;;;;;7.63;4.65;;;11.60;99.90;;;;;;5054099;28;20378;-78
2021/05/12 00:20:21;;;;;;;7.15;5.05;;;11.60;99.90;;;;;;5054061;28;20044;-78
2021/05/12 00:25:17;;;;;;;9.98;5.05;;;11.60;99.90;;;;;;5053348;28;20037;-78
2021/05/12 00:27:44;;;;;;;9.27;6.05;;;11.60;99.90;;;;;;5053633;28;20362;-78
2021/05/12 00:30:14;;;;;;;5.80;4.70;;;11.60;99.90;;;;;;5053980;28;20051;-78
2021/05/12 00:32:41;;;;;;;5.85;5.00;;;11.60;99.90;;;;;;5053155;28;20060;-78
2021/05/12 00:35:09;;;;;;;7.97;5.15;;;11.60;99.90;;;;;;5064618;28;20041;-78
2021/05/12 00:37:36;;;;;;;6.45;4.95;;;11.60;99.90;;;;;;5058530;28;20469;-78
2021/05/12 00:40:04;;;;;;;10.43;5.65;;;11.70;99.90;;;;;;5054613;28;20032;-76
2021/05/12 00:42:32;;;;;;;8.13;5.38;;;11.70;99.90;;;;;;5066214;28;20466;-77
2021/05/12 00:44:59;;;;;;;7.38;4.88;;;11.60;99.90;;;;;;5061955;28;20029;-77
2021/05/12 00:47:27;;;;;;;6.43;4.68;;;11.60;99.90;;;;;;5052885;28;20040;-77
2021/05/12 00:49:54;;;;;;;7.10;4.55;;;11.50;99.90;;;;;;5051687;28;20041;-77
2021/05/12 00:52:22;;;;;;;10.48;6.30;;;11.50;99.90;;;;;;5052755;28;20055;-77
2021/05/12 00:54:48;;;;;;;8.30;5.22;;;11.60;99.90;;;;;;5067429;28;20036;-78
2021/05/12 00:57:15;;;;;;;7.53;5.63;;;11.60;99.90;;;;;;5053071;28;20040;-78
2021/05/12 00:59:43;;;;;;;9.98;5.50;;;11.60;99.90;;;;;;5062460;28;20028;-77
2021/05/12 01:02:10;;;;;;;8.02;5.38;;;11.60;99.90;;;;;;5055442;28;20040;-78
2021/05/12 01:04:37;;;;;;;11.80;7.72;;;11.60;99.90;;;;;;5052666;28;20037;-77
2021/05/12 01:07:04;;;;;;;12.00;7.07;;;11.70;99.90;;;;;;5052865;28;20033;-77
2021/05/12 01:09:31;;;;;;;10.02;6.97;;;11.80;99.90;;;;;;5054146;28;20037;-78
2021/05/12 01:11:57;;;;;;;11.63;7.72;;;11.80;99.90;;;;;;5052725;28;20041;-79
2021/05/12 01:14:25;;;;;;;12.77;8.55;;;11.80;99.90;;;;;;5052471;28;20024;-78
2021/05/12 01:16:51;;;;;;;11.93;9.35;;;11.80;99.90;;;;;;5055279;28;20036;-78
2021/05/12 01:19:18;;;;;;;17.08;8.85;;;11.90;99.90;;;;;;5066730;28;20049;-78
2021/05/12 01:21:44;;;;;;;11.90;8.80;;;11.90;99.90;;;;;;5052518;28;20050;-78
2021/05/12 01:24:11;;;;;;;10.05;8.70;;;11.90;99.90;;;;;;5052750;28;20029;-78
2021/05/12 01:26:38;;;;;;;11.68;9.00;;;11.90;99.90;;;;;;5070112;28;20044;-78
2021/05/12 01:29:06;;;;;;;12.95;9.38;;;12.00;99.90;;;;;;5056657;28;20447;-78
2021/05/12 01:31:35;;;;;;;14.85;10.25;;;11.90;99.90;;;;;;5065461;28;20029;-78
2021/05/12 01:34:03;;;;;;;13.32;9.82;;;11.90;99.90;;;;;;5055708;28;20044;-78
2021/05/12 01:36:30;;;;;;;13.93;10.38;;;11.90;99.90;;;;;;5058093;28;20049;-78
2021/05/12 01:38:57;;;;;;;15.52;8.68;;;11.90;99.90;;;;;;5060881;28;20425;-78
2021/05/12 01:41:25;;;;;;;8.30;6.05;;;11.90;99.90;;;;;;5051766;28;20045;-78
2021/05/12 01:43:52;;;;;;;9.65;5.47;;;11.90;99.90;;;;;;5065272;28;20032;-78
2021/05/12 01:46:19;;;;;;;7.28;5.20;;;12.00;99.90;;;;;;5055766;28;20395;-78
2021/05/12 01:48:45;;;;;;;7.68;5.55;;;11.90;99.90;;;;;;5061891;28;20033;-78
2021/05/12 01:51:13;;;;;;;6.18;5.03;;;11.90;99.90;;;;;;5051643;28;20041;-78
2021/05/12 01:53:41;;;;;;;9.88;4.93;;;11.90;99.90;;;;;;5051778;28;20592;-78
2021/05/12 01:56:09;;;;;;;10.80;4.43;;;11.90;99.90;;;;;;5052297;28;20025;-78
2021/05/12 01:58:35;;;;;;;5.18;3.38;;;11.90;99.90;;;;;;5058923;28;20481;-78
2021/05/12 02:01:01;;;;;;;9.27;4.03;;;11.90;99.90;;;;;;5051977;28;20048;-78
2021/05/12 02:03:28;;;;;;;8.35;3.95;;;11.90;99.90;;;;;;5051546;28;20036;-78
2021/05/12 02:05:54;;;;;;;7.32;3.45;;;11.90;99.90;;;;;;5051965;28;20476;-78
2021/05/12 02:08:23;;;;;;;9.65;4.28;;;11.90;99.90;;;;;;5059072;28;20024;-78
2021/05/12 02:10:53;;;;;;;8.90;3.78;;;11.90;99.90;;;;;;5066208;28;20040;-78
2021/05/12 02:13:20;;;;;;;9.93;4.15;;;11.80;99.90;;;;;;5056720;28;20389;-78
2021/05/12 02:15:46;;;;;;;13.30;6.18;;;11.80;99.90;;;;;;5052783;28;20052;-79
2021/05/12 02:18:13;;;;;;;13.63;6.72;;;11.80;99.90;;;;;;5054737;28;20025;-79
2021/05/12 02:20:40;;;;;;;14.85;5.45;;;11.80;99.90;;;;;;5071283;28;20369;-79
2021/05/12 02:23:10;;;;;;;11.98;4.32;;;11.70;99.90;;;;;;5064805;28;20041;-79
2021/05/12 02:25:36;;;;;;;11.38;3.40;;;11.70;99.90;;;;;;5051783;28;20033;-79
2021/05/12 02:28:04;;;;;;;8.98;2.55;;;11.70;99.90;;;;;;5051825;28;20497;-78
2021/05/12 02:30:30;;;;;;;5.35;2.72;;;11.60;99.90;;;;;;5051456;28;20025;-79
2021/05/12 02:32:57;;;;;;;7.53;2.60;;;11.70;99.90;;;;;;5051751;28;20388;-78
2021/05/12 02:35:24;;;;;;;10.18;4.03;;;11.70;99.90;;;;;;5051202;28;20021;-79
2021/05/12 02:37:51;;;;;;;9.85;4.07;;;11.70;99.90;;;;;;5051797;28;20021;-79
2021/05/12 02:40:19;;;;;;;12.93;4.43;;;11.60;99.90;;;;;;5052226;28;20036;-79
2021/05/12 02:42:48;;;;;;;8.93;4.70;;;11.60;99.90;;;;;;5054653;28;20041;-79
2021/05/12 02:45:15;;;;;;;14.20;4.63;;;11.60;99.90;;;;;;5060216;28;20029;-79
2021/05/12 02:47:41;;;;;;;8.05;3.42;;;11.60;99.90;;;;;;5051155;28;20025;-79
2021/05/12 02:50:10;;;;;;;15.13;5.22;;;11.60;99.90;;;;;;5051775;28;20036;-79
2021/05/12 02:52:37;;;;;;;9.80;4.03;;;11.60;99.90;;;;;;5050917;28;20037;-79
2021/05/12 02:55:05;;;;;;;9.70;3.88;;;11.70;99.90;;;;;;5052162;28;20371;-79
2021/05/12 02:57:31;;;;;;;8.15;3.78;;;11.70;99.90;;;;;;5070048;28;20055;-79
2021/05/12 02:59:57;;;;;;;10.57;4.80;;;11.70;99.90;;;;;;5064900;28;20037;-79
2021/05/12 03:02:24;;;;;;;8.68;4.45;;;11.70;99.90;;;;;;5064345;28;20051;-79
2021/05/12 03:04:50;;;;;;;12.10;5.18;;;11.70;99.90;;;;;;5055287;28;20037;-79
2021/05/12 03:07:16;;;;;;;18.13;6.10;;;11.70;99.90;;;;;;5055716;28;20032;-79
2021/05/12 03:09:43;;;;;;;11.10;5.68;;;11.60;99.90;;;;;;5055122;28;20465;-78
2021/05/12 03:12:09;;;;;;;10.45;5.22;;;11.60;99.90;;;;;;5055344;28;20045;-78
2021/05/12 03:14:35;;;;;;;14.70;5.30;;;11.70;99.90;;;;;;5056872;28;20025;-80
2021/05/12 03:17:02;;;;;;;8.95;5.32;;;11.70;99.90;;;;;;5069614;28;20040;-80
2021/05/12 03:19:28;;;;;;;6.78;4.70;;;11.60;99.90;;;;;;5054759;28;20434;-79
2021/05/12 03:21:56;;;;;;;8.38;4.95;;;11.60;99.90;;;;;;5068839;28;20393;-79
2021/05/12 03:24:23;;;;;;;14.18;5.47;;;11.70;99.90;;;;;;5055116;28;20029;-79
2021/05/12 03:26:50;;;;;;;14.45;7.72;;;11.60;99.90;;;;;;5074745;28;20055;-78
2021/05/12 03:29:17;;;;;;;9.48;5.93;;;11.60;99.90;;;;;;5058549;28;20044;-79
2021/05/12 03:31:43;;;;;;;11.93;6.50;;;11.60;99.90;;;;;;5054607;28;20035;-78
2021/05/12 03:34:09;;;;;;;11.32;7.05;;;11.60;99.90;;;;;;5057465;28;20040;-79
2021/05/12 03:36:36;;;;;;;8.88;6.70;;;11.60;99.90;;;;;;5068385;28;20037;-79
2021/05/12 03:39:05;;;;;;;11.55;7.82;;;11.50;99.90;;;;;;5054959;28;20039;-79
2021/05/12 03:41:31;;;;;;;13.90;8.65;;;11.50;99.90;;;;;;5072931;28;20033;-79
2021/05/12 03:43:57;;;;;;;13.70;8.30;;;11.40;99.90;;;;;;5063473;28;20032;-79
2021/05/12 03:46:23;;;;;;;17.88;9.77;;;11.40;99.90;;;;;;5057536;28;20489;-79
2021/05/12 03:48:50;;;;;;;14.50;10.13;;;11.40;99.90;;;;;;5067503;28;20029;-79
2021/05/12 03:51:16;;;;;;;15.15;9.40;;;11.40;99.90;;;;;;5054613;28;20028;-79
2021/05/12 03:53:42;;;;;;;13.75;9.25;;;11.30;99.90;;;;;;5053931;28;20021;-79
2021/05/12 03:56:08;;;;;;;15.43;10.07;;;11.30;99.90;;;;;;5064431;28;20024;-78
2021/05/12 03:58:34;;;;;;;18.80;10.25;;;11.40;99.90;;;;;;5063908;28;20363;-79
2021/05/12 04:01:01;;;;;;;11.68;9.27;;;11.30;99.90;;;;;;5054517;28;20351;-78
2021/05/12 04:03:30;;;;;;;22.58;10.55;;;11.30;99.90;;;;;;5054113;28;20049;-78
2021/05/12 04:05:56;;;;;;;14.32;8.55;;;11.30;99.90;;;;;;5070394;28;20047;-78
2021/05/12 04:08:26;;;;;;;10.68;8.75;;;11.30;99.90;;;;;;5053816;28;20040;-78
2021/05/12 04:10:53;;;;;;;15.23;9.15;;;11.30;99.90;;;;;;5071460;28;20044;-78
2021/05/12 04:13:20;;;;;;;12.10;9.80;;;11.20;99.90;;;;;;5057889;28;20043;-78
2021/05/12 04:15:48;;;;;;;17.52;10.10;;;11.10;99.90;;;;;;5053609;28;20076;-78
2021/05/12 04:18:15;;;;;;;13.13;10.10;;;11.10;99.90;;;;;;5054002;28;20037;-78
2021/05/12 04:20:41;;;;;;;14.35;9.65;;;11.00;99.90;;;;;;5070415;28;20614;-79
2021/05/12 04:23:08;;;;;;;13.93;10.43;;;11.00;99.90;;;;;;5059089;28;20044;-77
2021/05/12 04:25:34;;;;;;;15.38;10.35;;;11.00;99.90;;;;;;5068675;28;20024;-79
2021/05/12 04:28:00;;;;;;;12.07;10.85;;;11.00;99.90;;;;;;5066892;28;20044;-79
2021/05/12 04:30:30;;;;;;;14.15;11.65;;;11.00;99.90;;;;;;5053610;28;20032;-79
2021/05/12 04:32:59;;;;;;;13.20;11.80;;;11.00;99.90;;;;;;5070651;28;20107;-79
2021/05/12 04:35:25;;;;;;;14.55;10.15;;;11.10;99.90;;;;;;5052691;28;20032;-79
2021/05/12 04:37:52;;;;;;;14.25;11.52;;;11.10;99.90;;;;;;5070123;28;20410;-79
2021/05/12 04:40:19;;;;;;;16.77;11.55;;;11.10;99.90;;;;;;5059953;28;20463;-79
2021/05/12 04:42:45;;;;;;;13.52;12.00;;;11.10;99.90;;;;;;5052923;28;20505;-80
2021/05/12 04:45:13;;;;;;;14.55;11.45;;;11.10;99.90;;;;;;5053981;28;20032;-79
2021/05/12 04:47:39;;;;;;;16.77;12.57;;;11.10;99.90;;;;;;5053270;28;20029;-79
2021/05/12 04:50:08;;;;;;;15.93;11.20;;;11.20;99.90;;;;;;5052975;28;20036;-76
2021/05/12 04:52:35;;;;;;;15.77;12.38;;;11.10;99.90;;;;;;5062770;28;20326;-78
2021/05/12 04:55:01;;;;;;;16.38;11.52;;;11.20;99.90;;;;;;5071589;28;20457;-78
2021/05/12 04:57:27;;;;;;;15.57;11.73;;;11.20;99.90;;;;;;5063214;28;20355;-79
2021/05/12 04:59:54;;;;;;;18.00;11.25;;;11.30;99.90;;;;;;5063907;28;20040;-78
2021/05/12 05:02:20;;;;;;;15.48;11.00;;;11.20;99.90;;;;;;5058208;28;20037;-78
2021/05/12 05:04:46;;;;;;;14.02;11.02;;;11.30;99.90;;;;;;5058476;28;20043;-78
2021/05/12 05:07:12;;;;;;;13.45;12.00;;;11.20;99.90;;;;;;5064232;28;20461;-78
2021/05/12 05:09:39;;;;;;;12.68;11.15;;;11.20;99.90;;;;;;5071382;28;20032;-78
2021/05/12 05:12:05;;;;;;;13.32;11.93;;;11.30;99.90;;;;;;5056780;28;20413;-78
2021/05/12 05:14:31;;;;;;;16.77;12.25;;;11.20;99.90;;;;;;5057370;28;20028;-79
2021/05/12 05:16:58;;;;;;;13.70;11.90;;;11.30;99.90;;;;;;5070139;28;20072;-79
2021/05/12 05:19:26;;;;;;;14.90;12.48;;;11.30;99.90;;;;;;5065065;28;20028;-79
2021/05/12 05:21:52;;;;;;;19.98;12.18;;;11.30;99.90;;;;;;5057572;28;20036;-79
2021/05/12 05:24:18;;;;;;;15.18;12.00;;;11.30;99.90;;;;;;5052411;28;20033;-79
2021/05/12 05:26:44;;;;;;;16.55;12.82;;;11.30;99.90;;;;;;5070434;28;20040;-79
2021/05/12 05:29:11;;;;;;;16.33;11.88;;;11.30;99.90;;;;;;5054024;28;20029;-79
2021/05/12 05:31:37;;;;;;;16.40;12.18;;;11.40;99.90;;;;;;5052623;28;20043;-79
2021/05/12 05:34:21;;;;;;;15.40;11.45;;;11.40;99.90;;;;;;5052476;28;20060;-79
2021/05/12 05:37:07;;;;;;;14.82;11.32;;;11.50;99.90;;;;;;5052642;28;20414;-79
2021/05/12 05:39:52;;;;;;;22.65;12.10;;;11.60;99.90;;;;;;5052709;28;20044;-79
2021/05/12 05:42:36;;;;;;;19.08;12.93;;;11.60;99.90;;;;;;5052984;28;20071;-80
2021/05/12 05:45:21;;;;;;;15.30;11.75;;;11.70;99.90;;;;;;5059960;28;20059;-80
2021/05/12 05:48:06;;;;;;;17.83;12.25;;;11.70;99.90;;;;;;5052602;28;20036;-80
2021/05/12 05:50:51;;;;;;;23.88;13.70;;;11.80;99.90;;;;;;5053648;28;20394;-79
2021/05/12 05:53:36;;;;;;;21.88;13.82;;;11.80;99.90;;;;;;5067435;28;20048;-76
2021/05/12 05:56:21;;;;;;;19.90;13.20;;;11.80;99.90;;;;;;5065311;28;20047;-80
2021/05/12 05:59:19;;;;;;;18.42;12.57;;;11.90;99.90;;;;;;5052432;28;20040;-81
2021/05/12 06:02:04;;;;;;;21.80;12.98;;;11.90;99.90;;;;;;5066488;28;20052;-80
2021/05/12 06:04:49;;;;;;;15.73;11.90;;;11.90;99.90;;;;;;5075292;28;20043;-81
2021/05/12 06:07:34;;;;;;;16.33;11.45;;;11.90;99.90;;;;;;5070713;28;20402;-80
2021/05/12 06:10:19;;;;;;;17.02;11.95;;;11.80;99.90;;;;;;5064731;28;20040;-81
2021/05/12 06:13:04;;;;;;;12.60;11.07;;;11.80;99.90;;;;;;5059158;28;20408;-80
2021/05/12 06:15:49;;;;;;;16.38;11.93;;;11.80;99.90;;;;;;5051830;28;20509;-80
2021/05/12 06:18:34;;;;;;;18.67;14.02;;;11.80;99.90;;;;;;5051727;28;20040;-81
2021/05/12 06:21:18;;;;;;;17.25;12.48;;;11.80;99.90;;;;;;5054551;28;20040;-82
2021/05/12 06:24:04;;;;;;;22.75;13.23;;;11.80;99.90;;;;;;5073912;28;20115;-81
2021/05/12 06:26:50;;;;;;;22.25;13.55;;;11.80;99.90;;;;;;5058495;28;20100;-82
2021/05/12 06:29:45;;;;;;;22.17;14.57;;;11.90;99.90;;;;;;5031541;28;20034;-85
2021/05/12 06:32:30;;;;;;;17.92;11.95;;;11.90;99.90;;;;;;5065172;28;20055;-80
2021/05/12 06:35:15;;;;;;;20.83;13.75;;;11.90;99.90;;;;;;5053025;28;20040;-80
2021/05/12 06:38:00;;;;;;;21.65;11.88;;;11.90;99.90;;;;;;5062994;28;20043;-80
2021/05/12 06:40:27;;;;;;;17.58;11.57;;;11.90;99.90;;;;;;5055382;28;20041;-81
2021/05/12 06:42:53;;;;;;;20.17;13.20;;;12.00;99.90;;;;;;5055809;28;20502;-80
2021/05/12 06:45:19;;;;;;;17.17;11.82;;;12.10;99.90;;;;;;5056147;28;20108;-81
2021/05/12 06:47:53;;;;;;;19.40;12.43;;;12.10;99.90;;;;;;5055569;28;20037;-80
2021/05/12 06:50:22;;;;;;;16.38;10.48;;;12.10;99.90;;;;;;5056147;28;20392;-79
2021/05/12 06:52:56;;;;;;;17.08;11.35;;;12.10;99.90;;;;;;5055166;28;20040;-80
2021/05/12 06:55:24;;;;;;;17.38;10.90;;;12.20;99.90;;;;;;5055904;28;20040;-79
2021/05/12 06:57:50;;;;;;;14.70;10.50;;;12.30;99.90;;;;;;5055783;28;20033;-79
2021/05/12 07:00:18;;;;;;;15.10;9.80;;;12.30;99.90;;;;;;5064609;28;20470;-79
2021/05/12 07:02:45;;;;;;;11.77;9.55;;;12.30;99.90;;;;;;5057115;28;20055;-79
2021/05/12 07:05:15;;;;;;;12.38;8.60;;;12.40;99.90;;;;;;5056235;28;20465;-79
2021/05/12 07:07:42;;;;;;;11.38;8.82;;;12.30;99.90;;;;;;5055436;28;20044;-79
2021/05/12 07:10:10;;;;;;;14.90;9.15;;;12.30;99.90;;;;;;5055581;28;20033;-79
2021/05/12 07:12:37;;;;;;;17.40;9.25;;;12.40;99.90;;;;;;5068746;28;20047;-79
2021/05/12 07:15:05;;;;;;;25.73;13.32;;;12.50;99.90;;;;;;5063214;28;20033;-80
2021/05/12 07:17:31;;;;;;;17.88;11.45;;;12.50;99.90;;;;;;5056986;28;20362;-78
2021/05/12 07:19:58;;;;;;;18.63;10.57;;;12.60;99.90;;;;;;5071778;28;20028;-77
2021/05/12 07:22:25;;;;;;;12.38;7.80;;;12.80;99.90;;;;;;5067284;28;20367;-78
2021/05/12 07:24:52;;;;;;;15.35;7.82;;;12.90;99.90;;;;;;5056192;28;20052;-78
2021/05/12 07:27:22;;;;;;;15.15;9.60;;;12.80;99.90;;;;;;5055798;28;20032;-79
2021/05/12 07:29:49;;;;;;;16.92;9.73;;;12.90;99.90;;;;;;5055931;28;20041;-79
2021/05/12 07:32:16;;;;;;;14.02;8.70;;;12.90;99.90;;;;;;5062746;28;20388;-78
2021/05/12 07:34:43;;;;;;;13.27;8.18;;;12.80;99.90;;;;;;5069515;28;20468;-78
2021/05/12 07:37:09;;;;;;;11.50;7.70;;;12.90;99.90;;;;;;5055060;28;20674;-79
2021/05/12 07:39:36;;;;;;;8.88;7.07;;;12.90;99.90;;;;;;5054508;28;20033;-78
2021/05/12 07:42:07;;;;;;;8.32;7.38;;;12.80;99.90;;;;;;5070350;28;20052;-78
2021/05/12 07:44:34;;;;;;;11.95;7.63;;;12.90;99.90;;;;;;5054116;28;20048;-78
2021/05/12 07:47:00;;;;;;;14.77;9.23;;;13.20;99.90;;;;;;5054968;28;20036;-78
2021/05/12 07:49:26;;;;;;;22.60;10.07;;;13.50;99.90;;;;;;5053681;28;20033;-78
2021/05/12 07:51:53;;;;;;;14.15;7.22;;;13.40;99.90;;;;;;5059415;28;20025;-78
2021/05/12 07:54:19;;;;;;;23.10;10.32;;;13.10;99.90;;;;;;5072044;28;20029;-79
2021/05/12 07:56:47;;;;;;;11.93;7.55;;;13.00;99.90;;;;;;5063284;28;20044;-80
2021/05/12 07:59:15;;;;;;;13.73;7.40;;;13.10;99.90;;;;;;5072445;28;20047;-79
2021/05/12 08:01:44;;;;;;;19.75;10.27;;;13.10;99.90;;;;;;5061789;28;20032;-79
2021/05/12 08:04:11;;;;;;;15.30;8.20;;;13.30;99.90;;;;;;5072614;28;20041;-79
2021/05/12 08:06:37;;;;;;;18.70;8.57;;;13.50;99.90;;;;;;5060537;28;20028;-78
2021/05/12 08:09:05;;;;;;;12.77;6.63;;;13.70;99.90;;;;;;5055308;28;20033;-78
2021/05/12 08:11:32;;;;;;;12.43;6.63;;;13.70;99.90;;;;;;5053431;28;20049;-77
2021/05/12 08:13:59;;;;;;;14.13;7.28;;;13.80;99.90;;;;;;5054247;28;20040;-78
2021/05/12 08:16:25;;;;;;;22.77;10.77;;;13.90;99.90;;;;;;5053942;28;20032;-78
2021/05/12 08:18:51;;;;;;;11.60;7.22;;;13.70;99.90;;;;;;5054278;28;20036;-78
2021/05/12 08:21:19;;;;;;;12.05;7.65;;;13.50;99.90;;;;;;5054219;28;20033;-78
2021/05/12 08:23:45;;;;;;;14.82;7.82;;;13.50;99.90;;;;;;5053672;28;20041;-78
2021/05/12 08:26:12;;;;;;;10.30;6.88;;;13.50;99.90;;;;;;5069252;28;20261;-79
2021/05/12 08:28:39;;;;;;;14.85;8.30;;;13.40;99.90;;;;;;5053691;28;20092;-79
2021/05/12 08:31:06;;;;;;;12.73;7.07;;;13.50;99.90;;;;;;5053922;28;20051;-77
2021/05/12 08:33:32;;;;;;;13.50;6.50;;;13.70;99.90;;;;;;5053234;28;20402;-78
2021/05/12 08:35:59;;;;;;;8.88;5.57;;;13.80;99.90;;;;;;5056509;28;20473;-78
2021/05/12 08:38:25;;;;;;;8.32;6.28;;;13.50;99.90;;;;;;5065975;28;20040;-79
2021/05/12 08:40:54;;;;;;;11.82;6.57;;;13.60;99.90;;;;;;5053851;28;20033;-78
2021/05/12 08:43:21;;;;;;;15.80;7.22;;;13.60;99.90;;;;;;5064953;28;20040;-78
2021/05/12 08:45:47;;;;;;;16.48;7.30;;;13.70;99.90;;;;;;5053320;28;20044;-78
2021/05/12 08:48:15;;;;;;;13.73;6.53;;;13.90;99.90;;;;;;5063907;28;20051;-78
2021/05/12 08:50:43;;;;;;;8.45;7.47;;;14.40;99.90;;;;;;5065376;28;20025;-77
2021/05/12 08:53:10;;;;;;;12.00;6.97;;;14.70;98.90;;;;;;5053841;28;20049;-77
2021/05/12 08:55:36;;;;;;;14.95;7.63;;;14.50;98.10;;;;;;5059735;28;20024;-76
2021/05/12 08:58:03;;;;;;;21.60;8.55;;;14.30;98.80;;;;;;5056626;28;20039;-77
2021/05/12 09:00:30;;;;;;;15.60;7.82;;;14.20;97.90;;;;;;5051622;28;20032;-77
2021/05/12 09:03:01;;;;;;;14.48;8.27;;;14.20;98.20;;;;;;5053379;28;20040;-77
2021/05/12 09:05:28;;;;;;;9.05;5.80;;;14.40;99.30;;;;;;5053161;28;20029;-79
2021/05/12 09:07:55;;;;;;;8.90;5.80;;;14.60;98.50;;;;;;5053176;28;20043;-77
2021/05/12 09:10:22;;;;;;;11.20;5.20;;;14.90;97.30;;;;;;5053288;28;20029;-77
2021/05/12 09:12:59;;;;;;;12.98;5.90;;;15.40;95.80;;;;;;5072768;28;20044;-78
2021/05/12 09:15:28;;;;;;;12.00;5.38;;;15.40;94.60;;;;;;5054883;28;20378;-77
2021/05/12 09:17:57;;;;;;;13.40;7.82;;;14.80;94.00;;;;;;5057233;28;20028;-78
2021/05/12 09:20:32;;;;;;;16.88;7.00;;;14.60;94.10;;;;;;5053215;28;20446;-77
2021/05/12 09:22:59;;;;;;;22.88;8.20;;;14.40;95.20;;;;;;5053266;28;20049;-78
2021/05/12 09:25:33;;;;;;;13.80;6.65;;;14.40;94.60;;;;;;5055108;28;20033;-78
2021/05/12 09:28:16;;;;;;;12.95;6.78;;;14.70;95.30;;;;;;5053611;28;20048;-78
2021/05/12 09:31:07;;;;;;;18.23;8.68;;;15.10;93.90;;;;;;5072418;28;20032;-78
2021/05/12 09:33:36;;;;;;;;;;;15.10;93.50;;;;;;5053207;28;20044;-78
2021/05/12 09:36:02;;;;;;;10.73;6.00;;;14.90;93.80;;;;;;5052924;28;20122;-78
2021/05/12 09:38:31;;;;;;;20.55;7.45;;;14.90;93.20;;;;;;5052276;28;20033;-78
2021/05/12 09:41:10;;;;;;;8.00;5.65;;;14.90;91.90;;;;;;5063353;28;20373;-77
2021/05/12 09:43:51;;;;;;;7.85;4.43;;;14.80;92.80;;;;;;5058286;28;20477;-74
2021/05/12 09:46:19;;;;;;;;;;;14.50;93.20;;;;;;5059380;28;20050;-78
2021/05/12 09:48:58;;;;;;;9.60;4.60;;;15.00;93.80;;;;;;5067885;28;19909;-76
2021/05/12 09:51:37;;;;;;;11.55;6.05;;;15.80;91.20;;;;;;5078457;28;20044;-77
2021/05/12 09:54:08;;;;;;;13.70;7.05;;;15.80;90.90;;;;;;5058538;28;20383;-77
2021/05/12 09:56:50;;;;;;;;;;;15.90;89.20;;;;;;5065989;28;20045;-77
2021/05/12 09:59:20;;;;;;;13.43;5.53;;;15.70;90.30;;;;;;5061248;28;19915;-76
2021/05/12 10:01:53;;;;;;;7.38;4.18;;;15.60;90.20;;;;;;5058630;28;20045;-77
2021/05/12 10:04:21;;;;;;;6.80;4.80;;;15.50;89.20;;;;;;5055849;28;20489;-77
2021/05/12 10:06:48;;;;;;;7.40;4.50;;;15.40;89.70;;;;;;5070369;28;20263;-77
2021/05/12 10:09:19;;;;;;;8.80;5.30;;;15.20;90.30;;;;;;5052076;28;20036;-78
2021/05/12 10:12:10;;;;;;;14.40;7.72;;;15.40;91.50;;;;;;5051343;28;20036;-77
2021/05/12 10:14:39;;;;;;;10.23;6.05;;;15.60;87.30;;;;;;5049251;28;20434;-77
2021/05/12 10:17:08;;;;;;;11.52;6.30;;;15.40;89.50;;;;;;5051863;28;20056;-76
2021/05/12 10:19:36;;;;;;;14.90;7.72;;;15.10;90.40;;;;;;5051789;28;20056;-76
2021/05/12 10:22:03;;;;;;;18.63;8.20;;;15.20;90.60;;;;;;5051719;28;20049;-77
2021/05/12 10:24:32;;;;;;;11.13;6.90;;;15.40;89.70;;;;;;5067946;28;20032;-77
2021/05/12 10:27:02;;;;;;;20.08;9.88;;;15.70;88.80;;;;;;5069057;28;20486;-77
2021/05/12 10:29:29;;;;;;;9.93;5.75;;;15.90;85.90;;;;;;5054596;28;20033;-76
2021/05/12 10:31:56;;;;;;;8.07;4.80;;;15.70;86.50;;;;;;5062219;28;20095;-77
2021/05/12 10:34:39;;;;;;;12.52;7.32;;;15.90;88.10;;;;;;5051957;28;20053;-77
2021/05/12 10:37:25;;;;;;;7.88;4.70;;;16.00;86.80;;;;;;5051811;28;20080;-77
2021/05/12 10:40:02;;;;;;;8.32;4.50;;;15.50;85.20;;;;;;5051585;28;20048;-76
2021/05/12 10:45:57;;;;;;;8.63;4.85;;;15.80;85.00;;;;;;5059256;28;20064;-77
2021/05/12 10:48:34;;;;;;;8.65;5.13;;;15.40;85.70;;;;;;5065122;28;20048;-77
2021/05/12 10:51:04;;;;;;;7.68;4.70;;;15.40;85.80;;;;;;5051665;28;20045;-78
2021/05/12 10:53:45;;;;;;;6.93;3.90;;;15.80;87.40;;;;;;5051752;28;20033;-77
2021/05/12 10:56:13;;;;;;;7.95;4.68;;;15.80;84.30;;;;;;5051887;28;20033;-77
2021/05/12 10:59:19;;;;;;;6.82;3.88;;;15.70;83.70;;;;;;5065925;28;20029;-77
2021/05/12 11:01:48;;;;;;;8.07;4.00;;;15.90;82.10;;;;;;5007262;28;20037;-78
2021/05/12 11:04:16;;;;;;;7.70;4.78;;;15.50;82.40;;;;;;5051787;28;20049;-78
2021/05/12 11:06:43;;;;;;;8.77;5.40;;;15.50;83.20;;;;;;5061338;28;20040;-79
2021/05/12 11:09:10;;;;;;;6.85;3.80;;;16.00;84.80;;;;;;5052203;28;20047;-79
2021/05/12 11:11:39;;;;;;;8.60;4.10;;;16.30;81.90;;;;;;5051275;28;20049;-79
2021/05/12 11:14:31;;;;;;;5.30;3.50;;;16.50;81.30;;;;;;5051734;28;20049;-79
2021/05/12 11:17:03;;;;;;;5.38;3.28;;;16.40;78.50;;;;;;5062325;28;20029;-79
2021/05/12 11:20:04;;;;;;;7.15;3.85;;;16.10;77.60;;;;;;5055472;28;20362;-79
2021/05/12 11:32:38;;;;;;;4.22;1.98;;;16.30;71.20;;;;;;5054542;28;20048;-79
2021/05/12 11:35:08;;;;;;;8.05;3.35;;;16.40;68.30;;;;;;5054681;28;20040;-79
2021/05/12 11:37:38;;;;;;;7.35;4.35;;;16.60;68.70;;;;;;5054682;28;20036;-79
2021/05/12 11:40:06;;;;;;;7.25;4.68;;;16.60;73.10;;;;;;5055030;28;20036;-80
2021/05/12 11:42:34;;;;;;;8.98;4.45;;;17.00;72.10;;;;;;5053787;28;20036;-78
2021/05/12 11:45:17;;;;;;;6.38;3.05;;;17.20;69.30;;;;;;5054648;28;20402;-78
2021/05/12 11:47:57;;;;;;;6.68;3.63;;;16.60;71.10;;;;;;5054223;28;20056;-78
2021/05/12 11:50:26;;;;;;;5.97;2.88;;;16.40;71.40;;;;;;5055054;28;20056;-78
2021/05/12 11:52:53;;;;;;;21.83;4.95;;;16.70;69.10;;;;;;5054323;28;20043;-78
2021/05/12 11:55:33;;;;;;;8.20;3.15;;;16.90;66.70;;;;;;5055200;28;20048;-77
2021/05/12 11:58:01;;;;;;;14.48;5.53;;;16.80;67.90;;;;;;5063137;28;20040;-77
2021/05/12 12:00:33;;;;;;;13.70;4.97;;;16.40;67.70;;;;;;5068486;28;20036;-79
2021/05/12 12:03:07;;;;;;;11.35;4.20;;;16.40;68.80;;;;;;5058191;28;20028;-78
2021/05/12 12:05:50;;;;;;;11.65;4.93;;;17.10;67.70;;;;;;5069469;28;20056;-79
2021/05/12 12:08:19;;;;;;;11.73;4.95;;;17.30;64.90;;;;;;5054666;28;20045;-80
2021/05/12 12:10:46;;;;;;;9.15;4.20;;;17.10;65.40;;;;;;5054327;28;20032;-79
2021/05/12 12:13:15;;;;;;;15.38;4.82;;;17.30;65.40;;;;;;5054364;28;20029;-79
2021/05/12 12:15:46;;;;;;;8.65;3.25;;;17.10;62.70;;;;;;5053615;28;20048;-79
2021/05/12 12:18:28;;;;;;;9.43;4.00;;;16.80;63.90;;;;;;5054387;28;20474;-79
2021/05/12 12:20:54;;;;;;;9.85;3.25;;;17.00;65.30;;;;;;5053699;28;20040;-79
2021/05/12 12:23:34;;;;;;;7.60;3.65;;;17.30;64.50;;;;;;5063555;28;20032;-79
2021/05/12 12:26:18;;;;;;;11.15;3.05;;;17.20;62.60;;;;;;5053920;28;20040;-78
2021/05/12 12:28:58;;;;;;;9.13;3.13;;;17.40;61.20;;;;;;5046581;28;20040;-78
2021/05/12 12:31:27;;;;;;;8.82;3.42;;;17.70;58.80;;;;;;5059919;28;20045;-79
2021/05/12 12:34:18;;;;;;;6.80;3.88;;;18.20;58.80;;;;;;5053321;28;20518;-78
2021/05/12 12:36:57;;;;;;;6.28;3.42;;;18.20;59.00;;;;;;5055066;28;20032;-80
2021/05/12 12:39:50;;;;;;;9.15;3.47;;;17.60;59.20;;;;;;5057281;28;20041;-79
2021/05/12 12:42:40;;;;;;;6.90;3.63;;;17.70;58.90;;;;;;5061098;28;20063;-79
2021/05/12 12:45:26;;;;;;;7.70;3.38;;;18.00;57.50;;;;;;5053747;28;20064;-80
2021/05/12 12:47:57;;;;;;;9.82;4.18;;;17.90;57.90;;;;;;5053714;28;20063;-79
2021/05/12 12:50:25;;;;;;;12.05;3.92;;;17.90;58.70;;;;;;5053794;28;20043;-80
2021/05/12 12:52:52;;;;;;;7.13;4.25;;;18.30;58.10;;;;;;5062687;28;20382;-80
2021/05/12 12:55:21;;;;;;;6.97;3.95;;;18.10;57.00;;;;;;5053312;28;20037;-80
2021/05/12 12:58:00;;;;;;;8.73;4.50;;;17.90;57.50;;;;;;5053144;28;20035;-80
2021/05/12 13:00:32;;;;;;;7.22;4.50;;;18.00;59.90;;;;;;5055212;28;20037;-79
2021/05/12 13:03:18;;;;;;;7.97;4.68;;;17.80;59.60;;;;;;5071794;28;20042;-79
2021/05/12 13:05:49;;;;;;;9.80;5.88;;;17.60;59.90;;;;;;5052549;28;20037;-79
2021/05/12 13:08:28;;;;;;;8.77;6.38;;;17.50;60.80;;;;;;5067730;28;20040;-79
2021/05/12 13:11:04;;;;;;;10.13;5.70;;;17.20;61.50;;;;;;5052522;28;20044;-79